Time;durP1;ratioP1;P1;durP2;ratioP2;P2;SDS_P1;SDS_P2;PMS_P1;PMS_P2;Temp;Humidity;BMP_temperature;BMP_pressure;BME280_temperature;BME280_humidity;BME280_pressure;Samples;Min_cycle;Max_cycle;Signal;HPM_P1;HPM_P2
2022/05/11 00:01:29;;;;;;;6.82;5.53;;;18.30;97.90;;;;;;4993315;28;20037;-48
2022/05/11 00:03:58;;;;;;;6.63;6.03;;;18.30;97.90;;;;;;4993455;28;20023;-50
2022/05/11 00:06:25;;;;;;;7.82;7.00;;;18.30;98.10;;;;;;4992762;28;20173;-47
2022/05/11 00:08:54;;;;;;;6.88;6.25;;;18.30;98.00;;;;;;4992836;28;20516;-49
2022/05/11 00:11:21;;;;;;;7.63;6.65;;;18.30;98.20;;;;;;4993216;28;20044;-48
2022/05/11 00:13:47;;;;;;;11.43;6.90;;;18.30;98.10;;;;;;4993153;28;20406;-44
2022/05/11 00:16:13;;;;;;;12.85;6.78;;;18.30;98.20;;;;;;4993038;28;20026;-51
2022/05/11 00:18:39;;;;;;;8.23;5.93;;;18.30;98.30;;;;;;4992448;28;20069;-48
2022/05/11 00:21:06;;;;;;;11.38;6.93;;;18.30;98.40;;;;;;4992860;28;20022;-45
2022/05/11 00:23:31;;;;;;;11.27;6.90;;;18.20;98.40;;;;;;4992877;28;20023;-49
2022/05/11 00:25:57;;;;;;;10.77;6.80;;;18.20;98.50;;;;;;4992389;28;20030;-49
2022/05/11 00:28:23;;;;;;;8.93;6.53;;;18.20;98.60;;;;;;4991149;28;20037;-46
2022/05/11 00:30:48;;;;;;;13.60;6.45;;;18.10;98.80;;;;;;4992453;28;20037;-45
2022/05/11 00:33:15;;;;;;;9.68;7.63;;;18.10;99.10;;;;;;4991261;28;20026;-45
2022/05/11 00:35:42;;;;;;;7.70;7.00;;;18.10;99.10;;;;;;4992115;28;20117;-46
2022/05/11 00:38:09;;;;;;;10.00;6.55;;;18.00;99.20;;;;;;4992497;28;20033;-48
2022/05/11 00:40:41;;;;;;;9.90;6.43;;;18.00;99.30;;;;;;4992567;28;20157;-46
2022/05/11 00:43:07;;;;;;;8.27;6.93;;;18.00;99.40;;;;;;4992598;28;20081;-46
2022/05/11 00:45:32;;;;;;;11.18;7.10;;;18.00;99.40;;;;;;4992430;28;20113;-47
2022/05/11 00:49:33;;;;;;;11.88;7.50;;;18.00;99.50;;;;;;4974544;28;20113;-47
2022/05/11 00:50:49;;;;;;;8.00;7.03;;;18.00;99.60;;;;;;4992343;28;20100;-46
2022/05/11 00:53:17;;;;;;;9.10;7.28;;;18.00;99.60;;;;;;4992441;28;20030;-48
2022/05/11 00:55:59;;;;;;;8.63;6.95;;;18.00;99.80;;;;;;4990715;28;20049;-48
2022/05/11 00:58:41;;;;;;;8.38;7.55;;;18.00;99.90;;;;;;4991851;28;20026;-46
2022/05/11 01:01:08;;;;;;;8.88;5.95;;;17.90;99.90;;;;;;4992194;28;20076;-47
2022/05/11 01:03:41;;;;;;;7.88;7.03;;;17.90;99.90;;;;;;4992365;28;20501;-45
2022/05/11 01:06:08;;;;;;;8.27;6.60;;;17.90;99.90;;;;;;4992290;28;20030;-50
2022/05/11 01:08:34;;;;;;;12.95;7.55;;;17.90;99.90;;;;;;4991393;28;20027;-48
2022/05/11 01:11:02;;;;;;;9.60;7.05;;;17.90;99.90;;;;;;4992175;28;20030;-45
2022/05/11 01:13:30;;;;;;;7.72;7.03;;;17.90;99.90;;;;;;4992013;28;20034;-46
2022/05/11 01:15:58;;;;;;;10.27;7.25;;;17.90;99.90;;;;;;4991934;28;20050;-46
2022/05/11 01:18:24;;;;;;;8.88;7.32;;;17.90;99.90;;;;;;4991838;28;20030;-46
2022/05/11 01:20:51;;;;;;;10.60;7.88;;;17.80;99.90;;;;;;4992081;28;20518;-45
2022/05/11 01:23:33;;;;;;;8.15;7.45;;;17.80;99.90;;;;;;4991954;28;20109;-45
2022/05/11 01:28:43;;;;;;;10.57;8.32;;;17.70;99.90;;;;;;4871974;29;20057;-51
2022/05/11 01:31:11;;;;;;;11.40;7.90;;;17.60;99.90;;;;;;4874785;29;20033;-50
2022/05/11 01:33:42;;;;;;;14.23;7.80;;;17.60;99.90;;;;;;4857986;29;20076;-44
2022/05/11 01:36:25;;;;;;;8.18;7.35;;;17.50;99.90;;;;;;4874564;29;20033;-55
2022/05/11 01:38:54;;;;;;;11.80;7.78;;;17.50;99.90;;;;;;4874270;29;20112;-48
2022/05/11 01:41:33;;;;;;;9.18;8.07;;;17.50;99.90;;;;;;4874640;29;20029;-49
2022/05/11 01:44:01;;;;;;;11.27;7.78;;;17.50;99.90;;;;;;4873432;28;20021;-47
2022/05/11 01:46:27;;;;;;;8.93;8.02;;;17.50;99.90;;;;;;4857733;29;20547;-49
2022/05/11 01:48:53;;;;;;;9.20;8.30;;;17.50;99.90;;;;;;4874260;29;20037;-49
2022/05/11 01:51:19;;;;;;;9.90;8.32;;;17.50;99.90;;;;;;4874429;29;20084;-55
2022/05/11 01:53:45;;;;;;;11.07;8.13;;;17.40;99.90;;;;;;4857717;29;20401;-52
2022/05/11 01:56:14;;;;;;;10.40;8.93;;;17.40;99.90;;;;;;4857594;29;20508;-48
2022/05/11 01:58:40;;;;;;;9.60;8.55;;;17.40;99.90;;;;;;4874181;29;20044;-46
2022/05/11 02:01:05;;;;;;;10.35;9.35;;;17.30;99.90;;;;;;4873290;29;20021;-49
2022/05/11 02:03:31;;;;;;;10.65;9.57;;;17.30;99.90;;;;;;4874399;29;20068;-48
2022/05/11 02:08:47;;;;;;;13.65;9.40;;;17.20;99.90;;;;;;4894202;29;20072;-50
2022/05/11 02:11:14;;;;;;;10.43;9.43;;;17.20;99.90;;;;;;4877574;29;20076;-48
2022/05/11 02:13:40;;;;;;;13.27;9.65;;;17.10;99.90;;;;;;4876330;29;20033;-49
2022/05/11 02:16:06;;;;;;;10.70;9.68;;;17.00;99.90;;;;;;4877159;29;20108;-50
2022/05/11 02:18:32;;;;;;;14.02;9.82;;;17.00;99.90;;;;;;4877251;29;20108;-53
2022/05/11 02:20:58;;;;;;;12.90;9.68;;;16.90;99.90;;;;;;4877235;29;20493;-51
2022/05/11 02:23:24;;;;;;;11.23;10.05;;;16.90;99.90;;;;;;4877466;29;20053;-47
2022/05/11 02:25:51;;;;;;;17.15;11.02;;;16.80;99.90;;;;;;4877086;29;20041;-48
2022/05/11 02:28:19;;;;;;;11.95;10.55;;;16.70;99.90;;;;;;4876819;29;20041;-48
2022/05/11 02:30:45;;;;;;;13.88;9.98;;;16.70;99.90;;;;;;4877134;29;20033;-49
2022/05/11 02:33:12;;;;;;;12.20;10.95;;;16.70;99.90;;;;;;4877222;29;20382;-46
2022/05/11 02:35:38;;;;;;;12.60;10.80;;;16.70;99.90;;;;;;4876814;29;20033;-51
2022/05/11 02:38:11;;;;;;;12.32;10.38;;;16.70;99.90;;;;;;4876757;29;20048;-50
2022/05/11 02:40:39;;;;;;;11.27;10.10;;;16.70;99.90;;;;;;4876912;29;20033;-54
2022/05/11 02:43:06;;;;;;;13.85;11.48;;;16.60;99.90;;;;;;4877026;29;20520;-48
2022/05/11 02:45:33;;;;;;;13.10;10.38;;;16.60;99.90;;;;;;4877250;29;20489;-53
2022/05/11 02:48:02;;;;;;;11.52;10.30;;;16.60;99.90;;;;;;4876489;29;20032;-51
2022/05/11 02:50:31;;;;;;;12.23;11.02;;;16.60;99.90;;;;;;4875613;28;20037;-48
2022/05/11 02:52:56;;;;;;;11.75;10.63;;;16.60;99.90;;;;;;4876955;29;20033;-47
2022/05/11 02:55:22;;;;;;;11.50;10.32;;;16.60;99.90;;;;;;4876848;29;20035;-48
2022/05/11 02:57:48;;;;;;;11.65;9.55;;;16.70;99.90;;;;;;4876568;29;20036;-52
2022/05/11 03:00:17;;;;;;;15.48;10.70;;;16.70;99.90;;;;;;4876729;29;20029;-55
2022/05/11 03:02:43;;;;;;;14.00;10.40;;;16.80;99.90;;;;;;4876618;29;20025;-49
2022/05/11 03:05:12;;;;;;;15.18;10.52;;;16.80;99.90;;;;;;4876520;29;20040;-48
2022/05/11 03:07:38;;;;;;;14.48;10.50;;;16.80;99.90;;;;;;4875801;29;20513;-50
2022/05/11 03:10:04;;;;;;;13.88;11.45;;;16.90;99.90;;;;;;4876471;29;20037;-50
2022/05/11 03:12:32;;;;;;;14.20;10.48;;;16.90;99.90;;;;;;4876556;29;20037;-52
2022/05/11 03:14:58;;;;;;;13.20;11.30;;;16.90;99.90;;;;;;4876271;29;20025;-50
2022/05/11 03:17:24;;;;;;;11.57;10.30;;;16.90;99.90;;;;;;4876079;29;20029;-50
2022/05/11 03:19:50;;;;;;;13.85;10.95;;;16.90;99.90;;;;;;4876309;29;20037;-52
2022/05/11 03:22:16;;;;;;;13.65;11.20;;;16.90;99.90;;;;;;4876423;29;20374;-52
2022/05/11 03:24:41;;;;;;;11.90;10.63;;;16.80;99.90;;;;;;4876391;29;20405;-48
2022/05/11 03:27:07;;;;;;;14.25;11.65;;;16.70;99.90;;;;;;4875965;29;20481;-53
2022/05/11 03:29:33;;;;;;;11.52;10.40;;;16.70;99.90;;;;;;4876269;29;20030;-48
2022/05/11 03:34:44;;;;;;;12.10;10.82;;;16.70;99.90;;;;;;4876430;29;20036;-51
2022/05/11 03:37:12;;;;;;;12.82;11.52;;;16.70;99.90;;;;;;4874669;28;20504;-52
2022/05/11 03:39:38;;;;;;;16.23;11.75;;;16.60;99.90;;;;;;4876078;29;20084;-51
2022/05/11 03:42:06;;;;;;;26.05;11.38;;;16.60;99.90;;;;;;4876567;29;20029;-50
2022/05/11 03:44:32;;;;;;;11.55;10.43;;;16.50;99.90;;;;;;4859591;29;20040;-49
2022/05/11 03:46:58;;;;;;;15.88;11.57;;;16.50;99.90;;;;;;4875734;29;20026;-49
2022/05/11 03:49:23;;;;;;;12.50;11.18;;;16.40;99.90;;;;;;4876147;29;20022;-49
2022/05/11 03:51:50;;;;;;;11.35;10.25;;;16.40;99.90;;;;;;4876207;29;20061;-52
2022/05/11 03:54:16;;;;;;;14.32;11.43;;;16.40;99.90;;;;;;4875902;29;20033;-51
2022/05/11 03:56:41;;;;;;;15.32;11.93;;;16.30;99.90;;;;;;4875600;29;20021;-51
2022/05/11 03:59:07;;;;;;;18.90;12.30;;;16.30;99.90;;;;;;4875825;29;20027;-52
2022/05/11 04:01:33;;;;;;;12.23;11.02;;;16.20;99.90;;;;;;4859139;29;20033;-50
2022/05/11 04:03:58;;;;;;;14.82;11.10;;;16.20;99.90;;;;;;4875836;29;20102;-53
2022/05/11 04:06:24;;;;;;;11.93;10.40;;;16.20;99.90;;;;;;4875513;29;20025;-51
2022/05/11 04:08:49;;;;;;;13.55;12.18;;;16.20;99.90;;;;;;4875237;29;20041;-52
2022/05/11 04:11:15;;;;;;;15.95;10.98;;;16.20;99.90;;;;;;4875695;29;20029;-53
2022/05/11 04:13:41;;;;;;;13.70;11.40;;;16.20;99.90;;;;;;4875721;29;20084;-52
2022/05/11 04:16:07;;;;;;;13.07;11.73;;;16.20;99.90;;;;;;4875576;29;20029;-49
2022/05/11 04:18:34;;;;;;;13.68;11.90;;;16.10;99.90;;;;;;4875507;29;20029;-48
2022/05/11 04:21:00;;;;;;;15.52;11.52;;;16.10;99.90;;;;;;4875648;29;20463;-53
2022/05/11 04:23:25;;;;;;;14.48;11.70;;;16.00;99.90;;;;;;4875704;29;20108;-51
2022/05/11 04:25:51;;;;;;;11.90;10.70;;;16.00;99.90;;;;;;4875591;29;20037;-49
2022/05/11 04:28:17;;;;;;;12.82;11.15;;;16.00;99.90;;;;;;4875350;29;20111;-49
2022/05/11 04:30:43;;;;;;;13.25;11.13;;;16.00;99.90;;;;;;4874936;29;20076;-48
2022/05/11 04:33:09;;;;;;;15.35;12.63;;;16.10;99.90;;;;;;4875470;29;20036;-50
2022/05/11 04:35:36;;;;;;;12.73;11.30;;;16.10;99.90;;;;;;4875211;29;20030;-55
2022/05/11 04:38:03;;;;;;;15.63;11.48;;;16.00;99.90;;;;;;4874974;29;20025;-53
2022/05/11 04:40:29;;;;;;;11.65;10.50;;;16.10;99.90;;;;;;4875559;29;20029;-52
2022/05/11 04:42:55;;;;;;;12.27;10.88;;;16.10;99.90;;;;;;4875498;29;20045;-51
2022/05/11 04:45:21;;;;;;;14.07;10.88;;;16.00;99.90;;;;;;4875304;29;20036;-54
2022/05/11 04:47:47;;;;;;;14.65;10.65;;;16.10;99.90;;;;;;4874729;29;20039;-53
2022/05/11 04:50:15;;;;;;;14.90;10.73;;;16.10;99.90;;;;;;4875119;29;20040;-54
2022/05/11 04:52:40;;;;;;;16.80;12.20;;;16.20;99.90;;;;;;4875223;29;20075;-49
2022/05/11 04:55:09;;;;;;;12.75;11.45;;;16.20;99.90;;;;;;4875231;29;20104;-47
2022/05/11 04:57:35;;;;;;;11.85;10.52;;;16.30;99.90;;;;;;4874812;29;20485;-53
2022/05/11 05:00:01;;;;;;;14.70;10.98;;;16.30;99.90;;;;;;4875170;29;20033;-47
2022/05/11 05:02:29;;;;;;;13.30;11.82;;;16.40;99.90;;;;;;4875120;29;20040;-53
2022/05/11 05:05:01;;;;;;;16.33;9.82;;;16.50;99.90;;;;;;4875055;29;20072;-50
2022/05/11 05:07:27;;;;;;;14.40;11.10;;;16.70;99.90;;;;;;4874120;29;20025;-61
2022/05/11 05:09:53;;;;;;;12.45;11.20;;;17.00;99.90;;;;;;4875178;29;20037;-46
2022/05/11 05:12:18;;;;;;;12.73;10.25;;;17.20;99.90;;;;;;4874955;29;20040;-50
2022/05/11 05:14:44;;;;;;;15.40;9.65;;;17.40;99.90;;;;;;4874898;29;20137;-54
2022/05/11 05:17:12;;;;;;;13.52;9.63;;;17.70;99.90;;;;;;4873083;29;20041;-51
2022/05/11 05:19:41;;;;;;;17.83;9.80;;;17.90;99.90;;;;;;4874984;29;20029;-53
2022/05/11 05:22:07;;;;;;;11.68;9.50;;;17.90;99.90;;;;;;4874849;29;20068;-48
2022/05/11 05:24:33;;;;;;;11.55;9.05;;;17.80;99.90;;;;;;4875163;29;20029;-52
2022/05/11 05:26:59;;;;;;;11.10;9.93;;;17.70;99.90;;;;;;4874332;29;20512;-52
2022/05/11 05:32:10;;;;;;;18.90;10.23;;;17.60;99.90;;;;;;4875006;29;20065;-48
2022/05/11 05:34:36;;;;;;;11.32;10.07;;;17.70;99.90;;;;;;4874715;29;20593;-49
2022/05/11 05:37:01;;;;;;;10.98;9.88;;;17.70;99.90;;;;;;4874154;29;20104;-50
2022/05/11 05:39:27;;;;;;;12.23;10.18;;;17.90;99.90;;;;;;4874781;29;20025;-53
2022/05/11 05:41:52;;;;;;;11.48;9.80;;;17.90;99.90;;;;;;4874989;29;20087;-52
2022/05/11 05:44:19;;;;;;;14.27;9.32;;;18.00;99.90;;;;;;4878018;29;20033;-49
2022/05/11 05:46:45;;;;;;;14.45;9.05;;;18.10;99.90;;;;;;4877560;29;20039;-52
2022/05/11 05:49:12;;;;;;;13.18;9.40;;;18.30;99.90;;;;;;4877660;29;20049;-47
2022/05/11 05:51:38;;;;;;;12.27;9.00;;;18.40;99.90;;;;;;4877798;29;20109;-51
2022/05/11 05:54:03;;;;;;;9.25;8.35;;;18.50;99.90;;;;;;4877854;29;20041;-48
2022/05/11 05:56:29;;;;;;;11.93;9.63;;;18.60;99.90;;;;;;4877495;29;20029;-50
2022/05/11 05:59:00;;;;;;;11.32;8.85;;;18.60;99.90;;;;;;4877295;29;20039;-51
2022/05/11 06:01:26;;;;;;;11.23;8.90;;;18.60;99.90;;;;;;4877672;29;20441;-55
2022/05/11 06:03:51;;;;;;;9.10;8.15;;;18.50;99.90;;;;;;4877610;29;20075;-50
2022/05/11 06:06:18;;;;;;;12.80;8.93;;;18.60;99.90;;;;;;4877408;29;20030;-48
2022/05/11 06:08:43;;;;;;;10.25;9.27;;;18.60;99.90;;;;;;4876787;29;20104;-51
2022/05/11 06:11:09;;;;;;;10.93;9.90;;;18.70;99.90;;;;;;4877525;29;20457;-48
2022/05/11 06:13:36;;;;;;;11.40;8.90;;;18.80;99.90;;;;;;4877461;29;20037;-53
2022/05/11 06:16:02;;;;;;;12.07;9.80;;;18.80;99.90;;;;;;4877189;29;20068;-46
2022/05/11 06:18:29;;;;;;;10.18;9.18;;;18.80;99.90;;;;;;4876976;29;20037;-51
2022/05/11 06:20:55;;;;;;;15.52;10.30;;;18.80;99.90;;;;;;4877275;29;20553;-54
2022/05/11 06:23:21;;;;;;;12.20;9.57;;;19.00;99.90;;;;;;4876922;29;20116;-50
2022/05/11 06:25:51;;;;;;;10.50;8.60;;;19.10;99.90;;;;;;4889207;28;20033;-53
2022/05/11 06:28:20;;;;;;;10.05;8.90;;;19.20;99.90;;;;;;4876186;29;20041;-50
2022/05/11 06:30:47;;;;;;;12.85;9.20;;;19.30;99.90;;;;;;4877159;29;20029;-58
2022/05/11 06:33:13;;;;;;;10.05;9.05;;;19.40;99.90;;;;;;4876811;29;20083;-50
2022/05/11 06:35:39;;;;;;;9.13;8.23;;;19.50;99.90;;;;;;4876794;29;20029;-46
2022/05/11 06:38:07;;;;;;;11.80;8.32;;;19.60;99.90;;;;;;4876667;29;20029;-51
2022/05/11 06:40:33;;;;;;;10.57;8.15;;;19.80;99.90;;;;;;4876711;29;20029;-50
2022/05/11 06:43:01;;;;;;;13.05;8.15;;;19.90;99.90;;;;;;4876800;29;20029;-49
2022/05/11 06:45:28;;;;;;;13.57;8.15;;;20.00;99.90;;;;;;4876857;29;20549;-48
2022/05/11 06:47:53;;;;;;;11.05;8.10;;;20.20;99.90;;;;;;4876467;29;20033;-49
2022/05/11 06:50:20;;;;;;;7.97;7.28;;;20.40;99.90;;;;;;4875964;29;20209;-47
2022/05/11 06:52:45;;;;;;;9.73;7.22;;;20.60;99.90;;;;;;4883288;28;20029;-49
2022/05/11 07:00:41;;;;;;;8.75;6.30;;;21.00;99.90;;;;;;4885934;29;20086;-46
2022/05/11 07:03:07;;;;;;;8.88;7.57;;;21.00;99.90;;;;;;4890322;29;20538;-48
2022/05/11 07:05:34;;;;;;;9.13;7.20;;;21.00;99.90;;;;;;4876446;29;20029;-51
2022/05/11 07:08:00;;;;;;;9.15;7.05;;;21.00;99.90;;;;;;4876361;29;20037;-47
2022/05/11 07:10:26;;;;;;;10.10;6.72;;;21.00;99.90;;;;;;4874933;29;20034;-46
2022/05/11 07:12:51;;;;;;;10.02;6.93;;;21.10;99.90;;;;;;4895117;29;20120;-50
2022/05/11 07:15:19;;;;;;;7.65;6.60;;;21.30;99.90;;;;;;4883320;29;20501;-47
2022/05/11 07:17:50;;;;;;;10.25;6.25;;;21.40;99.90;;;;;;4876106;29;20021;-44
2022/05/11 07:20:36;;;;;;;7.05;5.43;;;21.50;99.90;;;;;;4874559;29;20361;-46
2022/05/11 07:23:04;;;;;;;9.77;5.47;;;21.70;99.50;;;;;;4889835;29;20056;-50
2022/05/11 07:25:30;;;;;;;6.78;6.03;;;21.80;99.40;;;;;;4880504;29;20052;-47
2022/05/11 07:27:57;;;;;;;8.18;6.25;;;21.80;99.40;;;;;;4897849;23;20045;-50
2022/05/11 07:30:35;;;;;;;6.00;5.50;;;21.80;99.50;;;;;;4895423;29;20029;-46
2022/05/11 07:33:02;;;;;;;6.20;5.60;;;21.80;99.50;;;;;;4895507;29;20377;-47
2022/05/11 07:35:29;;;;;;;6.75;6.10;;;21.90;99.50;;;;;;4895128;29;20119;-46
2022/05/11 07:37:55;;;;;;;6.38;5.78;;;21.90;99.20;;;;;;4894859;29;20037;-44
2022/05/11 07:40:23;;;;;;;6.72;5.53;;;21.90;99.00;;;;;;4894600;29;20083;-47
2022/05/11 07:42:49;;;;;;;6.18;5.35;;;22.00;99.10;;;;;;4894928;29;20024;-48
2022/05/11 07:45:17;;;;;;;10.20;5.85;;;22.10;99.30;;;;;;4895044;29;20029;-46
2022/05/11 07:47:43;;;;;;;7.60;5.88;;;22.40;98.30;;;;;;4893540;29;20033;-47
2022/05/11 07:50:15;;;;;;;6.82;5.13;;;22.80;97.90;;;;;;4895142;29;20028;-45
2022/05/11 07:52:44;;;;;;;11.15;5.72;;;23.40;97.10;;;;;;4895482;29;20025;-50
2022/05/11 07:55:11;;;;;;;4.85;4.35;;;24.00;96.20;;;;;;4894948;29;20044;-49
2022/05/11 08:00:22;;;;;;;6.65;4.50;;;25.80;93.60;;;;;;4895553;29;20035;-49
2022/05/11 08:02:47;;;;;;;7.68;3.70;;;26.90;92.30;;;;;;4895001;29;20025;-43
2022/05/11 08:05:15;;;;;;;21.35;4.35;;;27.60;91.20;;;;;;4893947;29;20504;-46
2022/05/11 08:07:52;;;;;;;7.88;3.90;;;27.90;89.30;;;;;;4894561;29;20032;-45
2022/05/11 08:10:22;;;;;;;6.03;3.20;;;28.10;88.40;;;;;;4894932;29;20103;-52
2022/05/11 08:12:49;;;;;;;4.68;3.13;;;29.00;85.10;;;;;;4895170;29;20642;-45
2022/05/11 08:15:16;;;;;;;7.13;3.10;;;29.40;83.00;;;;;;4894702;29;20056;-47
2022/05/11 08:17:44;;;;;;;7.35;3.58;;;29.60;81.60;;;;;;4894198;29;20104;-47
2022/05/11 08:20:19;;;;;;;8.75;3.08;;;29.90;80.40;;;;;;4894620;29;20021;-46
2022/05/11 08:22:45;;;;;;;6.43;3.28;;;30.40;79.90;;;;;;4894591;29;20033;-45
2022/05/11 08:25:13;;;;;;;4.90;2.80;;;30.50;78.40;;;;;;4894402;29;20405;-47
2022/05/11 08:27:39;;;;;;;3.97;3.00;;;30.90;77.20;;;;;;4894095;28;20083;-48
2022/05/11 08:35:36;;;;;;;7.45;3.17;;;30.70;75.10;;;;;;4894396;29;20040;-50
2022/05/11 08:38:02;;;;;;;6.25;3.30;;;30.60;75.70;;;;;;4894202;29;20400;-45
2022/05/11 08:40:37;;;;;;;10.20;3.92;;;30.10;76.20;;;;;;4893635;29;20448;-46
2022/05/11 08:43:05;;;;;;;3.30;3.10;;;29.70;76.80;;;;;;4894106;29;20635;-46
2022/05/11 08:45:37;;;;;;;4.75;3.08;;;29.50;77.60;;;;;;4893989;29;20032;-50
2022/05/11 08:48:08;;;;;;;5.93;3.42;;;29.10;78.40;;;;;;4893744;29;20115;-46
2022/05/11 08:50:37;;;;;;;4.88;3.40;;;28.90;78.30;;;;;;4893978;29;20055;-47
2022/05/11 08:53:29;;;;;;;4.53;3.17;;;28.60;79.20;;;;;;4894103;29;20436;-49
2022/05/11 08:55:58;;;;;;;7.15;3.20;;;28.40;79.10;;;;;;4893882;29;20528;-44
2022/05/11 08:58:36;;;;;;;5.25;3.33;;;28.20;79.10;;;;;;4893942;29;20446;-49
2022/05/11 09:01:07;;;;;;;3.65;3.00;;;28.20;80.60;;;;;;4894173;29;20548;-45
2022/05/11 09:03:38;;;;;;;6.28;3.10;;;28.20;80.60;;;;;;4892169;29;20025;-45
2022/05/11 09:06:06;;;;;;;7.70;3.10;;;28.10;79.60;;;;;;4892635;29;20036;-45
2022/05/11 09:08:37;;;;;;;7.22;3.10;;;28.20;80.00;;;;;;4893556;29;20029;-46
2022/05/11 09:11:04;;;;;;;9.10;3.20;;;28.30;79.00;;;;;;4874172;29;20037;-48
2022/05/11 09:13:30;;;;;;;6.10;3.95;;;28.20;78.90;;;;;;4893967;29;20115;-48
2022/05/11 09:16:00;;;;;;;5.80;3.25;;;28.20;80.00;;;;;;4893584;29;20461;-49
2022/05/11 09:18:31;;;;;;;28.55;17.67;;;28.20;79.70;;;;;;4896929;29;20067;-49
2022/05/11 09:20:59;;;;;;;5.63;4.13;;;28.10;79.20;;;;;;4916180;28;20024;-48
2022/05/11 09:23:36;;;;;;;7.30;3.72;;;28.10;81.00;;;;;;4899262;29;20060;-49
2022/05/11 09:26:05;;;;;;;6.30;3.45;;;27.80;79.90;;;;;;4903210;29;20060;-53
2022/05/11 09:28:34;;;;;;;3.53;3.22;;;27.60;80.80;;;;;;4896111;28;20041;-50
2022/05/11 09:31:01;;;;;;;7.00;3.05;;;27.60;81.00;;;;;;4894642;29;20036;-46
2022/05/11 09:33:30;;;;;;;3.85;3.28;;;27.60;81.10;;;;;;4896920;29;20140;-46
2022/05/11 09:35:56;;;;;;;3.70;3.40;;;27.70;81.50;;;;;;4893562;29;20048;-45
2022/05/11 09:38:21;;;;;;;3.55;3.25;;;27.90;81.40;;;;;;4895931;29;20024;-49
2022/05/11 09:40:58;;;;;;;9.18;3.10;;;28.00;81.60;;;;;;4915231;29;20122;-46
2022/05/11 09:43:43;;;;;;;5.35;3.88;;;28.20;79.70;;;;;;4908502;29;20028;-51
2022/05/11 09:46:31;;;;;;;6.90;3.70;;;28.00;80.00;;;;;;4896200;29;20064;-46
2022/05/11 09:49:04;;;;;;;7.32;3.25;;;28.10;82.10;;;;;;4896209;29;20028;-48
2022/05/11 09:51:30;;;;;;;7.38;3.70;;;28.20;82.00;;;;;;4896035;29;20471;-46
2022/05/11 09:54:13;;;;;;;4.22;2.50;;;28.10;80.50;;;;;;4896274;29;20107;-47
2022/05/11 09:56:54;;;;;;;5.20;2.88;;;27.70;74.60;;;;;;4954322;28;20033;-50
2022/05/11 09:59:27;;;;;;;7.45;2.55;;;27.40;76.10;;;;;;4912116;29;20492;-47
2022/05/11 10:02:24;;;;;;;5.28;2.08;;;27.40;76.90;;;;;;4911239;29;20025;-46
2022/05/11 10:04:55;;;;;;;4.30;2.30;;;27.50;75.50;;;;;;4896729;29;20036;-47
2022/05/11 10:07:23;;;;;;;2.22;1.77;;;27.70;74.30;;;;;;4896047;29;20477;-47
2022/05/11 10:09:54;;;;;;;3.45;3.15;;;27.60;73.40;;;;;;4896131;29;20504;-50
2022/05/11 10:12:26;;;;;;;5.45;2.25;;;27.60;73.00;;;;;;4896488;29;20106;-46
2022/05/11 10:23:29;;;;;;;5.13;2.28;;;27.90;73.00;;;;;;4895742;29;20280;-48
2022/05/11 10:26:09;;;;;;;4.10;1.98;;;27.80;71.00;;;;;;4895878;29;20036;-46
2022/05/11 10:28:53;;;;;;;2.58;2.38;;;27.70;70.70;;;;;;4894002;29;20040;-46
2022/05/11 10:31:26;;;;;;;4.60;2.38;;;27.70;72.20;;;;;;4895313;29;20036;-50
2022/05/11 10:34:19;;;;;;;4.30;2.00;;;27.70;72.60;;;;;;4894890;29;20048;-45
2022/05/11 10:37:07;;;;;;;4.40;1.80;;;27.70;70.30;;;;;;4875167;29;20412;-45
2022/05/11 10:40:05;;;;;;;2.85;2.17;;;27.60;69.90;;;;;;4895352;29;20484;-47
2022/05/11 10:43:04;;;;;;;3.75;2.00;;;27.50;69.60;;;;;;4895853;29;20404;-45
2022/05/11 10:45:53;;;;;;;4.40;2.28;;;27.40;70.50;;;;;;4895381;29;20087;-49
2022/05/11 10:48:45;;;;;;;4.65;3.05;;;27.50;70.10;;;;;;4895203;29;20029;-48
2022/05/11 10:51:51;;;;;;;4.05;1.98;;;27.60;70.70;;;;;;4895197;29;20029;-49
2022/05/11 10:54:25;;;;;;;;;;;27.60;69.20;;;;;;4896193;29;20075;-51
2022/05/11 10:57:12;;;;;;;7.45;2.03;;;27.60;70.40;;;;;;4894732;29;19915;-51
2022/05/11 11:00:02;;;;;;;4.75;1.92;;;27.70;70.80;;;;;;4904887;28;20230;-49
2022/05/11 11:02:39;;;;;;;11.02;8.60;;;27.70;70.60;;;;;;4905039;29;20082;-48
2022/05/11 11:05:25;;;;;;;2.13;1.92;;;27.60;70.40;;;;;;4915377;29;20361;-51
2022/05/11 11:08:21;;;;;;;4.28;1.95;;;27.70;68.80;;;;;;4913967;28;20040;-50
2022/05/11 11:11:01;;;;;;;4.90;2.30;;;27.70;69.10;;;;;;4914075;29;20020;-50
2022/05/11 11:13:45;;;;;;;6.45;2.30;;;27.60;69.60;;;;;;4914052;29;20032;-53
2022/05/11 11:16:13;;;;;;;2.60;2.25;;;27.60;69.90;;;;;;4900460;29;20111;-48
2022/05/11 11:18:46;;;;;;;4.90;1.70;;;27.60;69.90;;;;;;4894913;29;20040;-51
2022/05/11 11:21:13;;;;;;;3.42;1.83;;;27.70;70.40;;;;;;4894991;29;20108;-52
2022/05/11 11:23:41;;;;;;;3.30;1.73;;;27.80;68.80;;;;;;4894344;29;20459;-49
2022/05/11 11:26:09;;;;;;;3.50;1.80;;;27.80;68.60;;;;;;4894755;29;20040;-50
2022/05/11 11:28:40;;;;;;;6.18;2.22;;;27.80;67.50;;;;;;4893943;28;20071;-50
2022/05/11 11:31:12;;;;;;;2.38;2.05;;;27.70;67.80;;;;;;4894618;28;20032;-52
2022/05/11 11:34:01;;;;;;;5.05;2.15;;;27.60;68.30;;;;;;4894646;29;20035;-52
2022/05/11 11:36:31;;;;;;;3.38;2.67;;;27.60;68.50;;;;;;4899514;29;20032;-52
2022/05/11 11:38:59;;;;;;;2.08;1.98;;;27.70;68.00;;;;;;4913487;29;20154;-48
2022/05/11 11:41:47;;;;;;;2.30;1.95;;;27.70;67.90;;;;;;4913495;29;20027;-52
2022/05/11 11:44:22;;;;;;;4.60;2.03;;;27.70;68.90;;;;;;4945874;28;20043;-48
2022/05/11 11:46:48;;;;;;;5.45;1.70;;;27.70;66.50;;;;;;4973357;28;20026;-49
2022/05/11 11:49:18;;;;;;;2.97;2.03;;;27.70;66.00;;;;;;4949088;28;20033;-53
2022/05/11 11:51:56;;;;;;;5.22;2.00;;;27.80;67.50;;;;;;4959091;28;20034;-50
2022/05/11 11:54:37;;;;;;;3.10;2.15;;;27.80;67.60;;;;;;4893669;29;20032;-58
2022/05/11 11:57:12;;;;;;;6.78;1.90;;;27.80;65.90;;;;;;4893920;28;20128;-46
2022/05/11 11:59:49;;;;;;;1.92;1.73;;;27.80;66.40;;;;;;4902596;28;20024;-45
2022/05/11 12:02:19;;;;;;;2.17;2.00;;;27.80;66.60;;;;;;4913459;28;20039;-48
2022/05/11 12:04:52;;;;;;;5.35;1.67;;;27.80;65.70;;;;;;4896605;29;20477;-47
2022/05/11 12:15:43;;;;;;;5.07;2.58;;;27.80;68.80;;;;;;4893637;29;20126;-46
2022/05/11 12:18:24;;;;;;;3.53;2.00;;;27.80;67.30;;;;;;4894255;29;20061;-45
2022/05/11 12:20:50;;;;;;;7.60;2.40;;;27.90;65.80;;;;;;4894706;29;20091;-46
2022/05/11 12:23:23;;;;;;;3.47;1.80;;;28.00;66.60;;;;;;4893894;29;20072;-45
2022/05/11 12:25:57;;;;;;;2.30;2.10;;;28.10;67.30;;;;;;4974713;28;20032;-46
2022/05/11 12:28:32;;;;;;;2.63;2.17;;;28.10;66.10;;;;;;4893859;28;20146;-47
2022/05/11 12:30:58;;;;;;;5.13;2.42;;;28.10;65.80;;;;;;4893416;29;20593;-48
2022/05/11 12:33:28;;;;;;;2.60;2.00;;;28.00;65.00;;;;;;4893636;29;20112;-46
2022/05/11 12:35:54;;;;;;;4.63;2.20;;;28.00;65.90;;;;;;4894274;28;20037;-48
2022/05/11 12:38:29;;;;;;;9.18;2.10;;;28.00;66.20;;;;;;4894236;28;20025;-50
2022/05/11 12:40:56;;;;;;;2.20;2.10;;;28.10;66.40;;;;;;4893701;29;20028;-47
2022/05/11 12:43:29;;;;;;;5.30;2.63;;;28.00;64.50;;;;;;4894220;28;20072;-47
2022/05/11 12:45:58;;;;;;;6.00;2.33;;;28.00;65.60;;;;;;4894050;29;20028;-48
2022/05/11 12:48:39;;;;;;;5.95;1.95;;;28.10;66.40;;;;;;4893616;29;20032;-47
2022/05/11 12:51:10;;;;;;;9.02;2.30;;;28.10;66.20;;;;;;4893745;29;20138;-48
2022/05/11 12:53:56;;;;;;;4.63;2.13;;;28.10;66.40;;;;;;4894158;28;20170;-52
2022/05/11 12:56:28;;;;;;;3.03;2.10;;;28.10;64.90;;;;;;4893551;29;20032;-49
2022/05/11 12:58:59;;;;;;;3.17;1.88;;;28.10;64.90;;;;;;4893665;29;20184;-50
2022/05/11 13:01:28;;;;;;;2.95;1.80;;;28.10;64.70;;;;;;4893928;29;20016;-50
2022/05/11 13:03:58;;;;;;;4.45;2.10;;;28.10;64.10;;;;;;4893755;29;20035;-50
2022/05/11 13:06:40;;;;;;;8.65;2.33;;;28.10;63.40;;;;;;4893676;29;20033;-51
2022/05/11 13:09:15;;;;;;;3.53;2.10;;;28.00;64.50;;;;;;4894033;29;20033;-50
2022/05/11 13:11:41;;;;;;;3.58;2.35;;;27.90;65.30;;;;;;4893600;29;20395;-48
2022/05/11 13:14:16;;;;;;;4.68;2.40;;;27.80;65.50;;;;;;4893796;29;20044;-48
2022/05/11 13:16:57;;;;;;;8.02;2.38;;;27.80;66.30;;;;;;4893623;29;20025;-58
2022/05/11 13:19:34;;;;;;;6.70;2.13;;;27.90;66.10;;;;;;4893304;29;20484;-48
2022/05/11 13:22:02;;;;;;;5.20;2.30;;;27.90;66.10;;;;;;4892381;29;20033;-46
2022/05/11 13:24:49;;;;;;;1.95;1.80;;;28.00;62.70;;;;;;4893359;29;20090;-44
2022/05/11 13:29:44;;;;;;;3.58;2.28;;;28.10;62.30;;;;;;4969117;28;20397;-41
2022/05/11 13:32:11;;;;;;;2.70;2.08;;;28.00;61.40;;;;;;4972685;28;20023;-41
2022/05/11 13:34:41;;;;;;;3.08;2.10;;;27.90;63.00;;;;;;4972515;28;20065;-50
2022/05/11 13:37:28;;;;;;;2.67;2.03;;;28.00;62.50;;;;;;4972446;28;20169;-48
2022/05/11 13:39:55;;;;;;;8.98;2.17;;;28.00;62.50;;;;;;4953559;29;20196;-45